sensor_id;sensor_type;location;lat;lon;timestamp;temperature;humidity
8105;DHT22;4095;48.942;9.104;2023-02-03T00:02:12;9.30;99.70
8105;DHT22;4095;48.942;9.104;2023-02-03T00:04:38;9.20;99.70
8105;DHT22;4095;48.942;9.104;2023-02-03T00:07:03;9.30;99.80
8105;DHT22;4095;48.942;9.104;2023-02-03T00:09:29;9.30;99.80
8105;DHT22;4095;48.942;9.104;2023-02-03T00:11:55;9.30;99.80
8105;DHT22;4095;48.942;9.104;2023-02-03T00:14:20;9.30;99.80
8105;DHT22;4095;48.942;9.104;2023-02-03T00:16:46;9.30;99.80
8105;DHT22;4095;48.942;9.104;2023-02-03T00:19:12;9.30;99.90
8105;DHT22;4095;48.942;9.104;2023-02-03T00:21:37;9.40;99.90
8105;DHT22;4095;48.942;9.104;2023-02-03T00:24:03;9.40;99.90
8105;DHT22;4095;48.942;9.104;2023-02-03T00:26:29;9.40;99.90
8105;DHT22;4095;48.942;9.104;2023-02-03T00:28:54;9.40;99.90
8105;DHT22;4095;48.942;9.104;2023-02-03T00:31:22;9.40;99.90
8105;DHT22;4095;48.942;9.104;2023-02-03T00:33:54;9.40;99.90
8105;DHT22;4095;48.942;9.104;2023-02-03T00:36:20;9.30;99.90
8105;DHT22;4095;48.942;9.104;2023-02-03T00:38:46;9.40;99.90
8105;DHT22;4095;48.942;9.104;2023-02-03T00:41:13;9.40;99.90
8105;DHT22;4095;48.942;9.104;2023-02-03T00:43:39;9.40;99.90
8105;DHT22;4095;48.942;9.104;2023-02-03T00:46:04;9.30;99.90
8105;DHT22;4095;48.942;9.104;2023-02-03T00:48:30;9.30;99.90
8105;DHT22;4095;48.942;9.104;2023-02-03T00:50:55;9.30;99.90
8105;DHT22;4095;48.942;9.104;2023-02-03T00:53:21;9.40;99.90
8105;DHT22;4095;48.942;9.104;2023-02-03T00:55:47;9.40;99.90
8105;DHT22;4095;48.942;9.104;2023-02-03T00:58:12;9.30;99.90
8105;DHT22;4095;48.942;9.104;2023-02-03T01:00:38;9.40;99.90
8105;DHT22;4095;48.942;9.104;2023-02-03T01:03:04;9.30;99.90
8105;DHT22;4095;48.942;9.104;2023-02-03T01:05:29;9.30;99.90
8105;DHT22;4095;48.942;9.104;2023-02-03T01:07:55;9.40;99.90
8105;DHT22;4095;48.942;9.104;2023-02-03T01:10:21;9.30;99.90
8105;DHT22;4095;48.942;9.104;2023-02-03T01:12:46;9.30;99.90
8105;DHT22;4095;48.942;9.104;2023-02-03T01:15:12;9.30;99.90
8105;DHT22;4095;48.942;9.104;2023-02-03T01:17:38;9.30;99.90
8105;DHT22;4095;48.942;9.104;2023-02-03T01:20:03;9.20;99.90
8105;DHT22;4095;48.942;9.104;2023-02-03T01:22:30;9.20;99.90
8105;DHT22;4095;48.942;9.104;2023-02-03T01:24:55;9.20;99.90
8105;DHT22;4095;48.942;9.104;2023-02-03T01:27:21;9.30;99.90
8105;DHT22;4095;48.942;9.104;2023-02-03T01:29:46;9.30;99.90
8105;DHT22;4095;48.942;9.104;2023-02-03T01:32:12;9.30;99.90
8105;DHT22;4095;48.942;9.104;2023-02-03T01:34:39;9.30;99.90
8105;DHT22;4095;48.942;9.104;2023-02-03T01:37:04;9.20;99.90
8105;DHT22;4095;48.942;9.104;2023-02-03T01:39:30;9.30;99.90
8105;DHT22;4095;48.942;9.104;2023-02-03T01:41:57;9.20;99.90
8105;DHT22;4095;48.942;9.104;2023-02-03T01:50:02;9.30;99.90
8105;DHT22;4095;48.942;9.104;2023-02-03T01:52:29;9.30;99.90
8105;DHT22;4095;48.942;9.104;2023-02-03T01:54:57;9.30;99.90
8105;DHT22;4095;48.942;9.104;2023-02-03T01:57:30;9.30;99.90
8105;DHT22;4095;48.942;9.104;2023-02-03T01:59:58;9.30;99.90
8105;DHT22;4095;48.942;9.104;2023-02-03T02:02:25;9.30;99.90
8105;DHT22;4095;48.942;9.104;2023-02-03T02:05:16;9.30;99.90
8105;DHT22;4095;48.942;9.104;2023-02-03T02:07:44;9.30;99.90
8105;DHT22;4095;48.942;9.104;2023-02-03T02:10:10;9.30;99.90
8105;DHT22;4095;48.942;9.104;2023-02-03T02:12:36;9.30;99.90
8105;DHT22;4095;48.942;9.104;2023-02-03T02:15:02;9.30;99.90
8105;DHT22;4095;48.942;9.104;2023-02-03T02:17:35;9.30;99.90
8105;DHT22;4095;48.942;9.104;2023-02-03T02:20:33;9.30;99.90
8105;DHT22;4095;48.942;9.104;2023-02-03T02:26:37;9.30;99.90
8105;DHT22;4095;48.942;9.104;2023-02-03T02:29:26;9.30;99.90
8105;DHT22;4095;48.942;9.104;2023-02-03T02:35:05;9.30;99.90
8105;DHT22;4095;48.942;9.104;2023-02-03T02:37:37;9.20;99.90
8105;DHT22;4095;48.942;9.104;2023-02-03T02:46:15;9.10;99.90
8105;DHT22;4095;48.942;9.104;2023-02-03T02:48:51;9.10;99.90
8105;DHT22;4095;48.942;9.104;2023-02-03T02:51:19;9.00;99.90
8105;DHT22;4095;48.942;9.104;2023-02-03T02:53:53;9.00;99.90
8105;DHT22;4095;48.942;9.104;2023-02-03T02:56:20;9.00;99.90
8105;DHT22;4095;48.942;9.104;2023-02-03T02:58:48;9.10;99.90
8105;DHT22;4095;48.942;9.104;2023-02-03T03:01:15;9.10;99.90
8105;DHT22;4095;48.942;9.104;2023-02-03T03:03:41;9.10;99.90
8105;DHT22;4095;48.942;9.104;2023-02-03T03:06:23;9.10;99.90
8105;DHT22;4095;48.942;9.104;2023-02-03T03:08:54;9.10;99.90
8105;DHT22;4095;48.942;9.104;2023-02-03T03:11:24;9.10;99.90
8105;DHT22;4095;48.942;9.104;2023-02-03T03:13:52;9.20;99.90
8105;DHT22;4095;48.942;9.104;2023-02-03T03:16:22;9.20;99.90
8105;DHT22;4095;48.942;9.104;2023-02-03T03:19:12;9.10;99.90
8105;DHT22;4095;48.942;9.104;2023-02-03T03:21:46;9.20;99.90
8105;DHT22;4095;48.942;9.104;2023-02-03T03:24:17;9.20;99.90
8105;DHT22;4095;48.942;9.104;2023-02-03T03:27:07;9.10;99.90
8105;DHT22;4095;48.942;9.104;2023-02-03T03:29:47;9.20;99.90
8105;DHT22;4095;48.942;9.104;2023-02-03T03:32:15;9.20;99.90
8105;DHT22;4095;48.942;9.104;2023-02-03T03:34:41;9.20;99.90
8105;DHT22;4095;48.942;9.104;2023-02-03T03:37:17;9.20;99.90
8105;DHT22;4095;48.942;9.104;2023-02-03T03:39:54;9.20;99.90
8105;DHT22;4095;48.942;9.104;2023-02-03T03:42:25;9.20;99.90
8105;DHT22;4095;48.942;9.104;2023-02-03T03:45:11;9.20;99.90
8105;DHT22;4095;48.942;9.104;2023-02-03T03:48:03;9.20;99.90
8105;DHT22;4095;48.942;9.104;2023-02-03T03:50:33;9.20;99.90
8105;DHT22;4095;48.942;9.104;2023-02-03T03:53:03;9.20;99.90
8105;DHT22;4095;48.942;9.104;2023-02-03T03:55:31;9.20;99.90
8105;DHT22;4095;48.942;9.104;2023-02-03T03:58:08;9.20;99.90
8105;DHT22;4095;48.942;9.104;2023-02-03T04:00:37;9.30;99.90
8105;DHT22;4095;48.942;9.104;2023-02-03T04:03:27;9.30;99.90
8105;DHT22;4095;48.942;9.104;2023-02-03T04:05:51;9.30;99.90
8105;DHT22;4095;48.942;9.104;2023-02-03T04:08:16;9.20;99.90
8105;DHT22;4095;48.942;9.104;2023-02-03T04:10:42;9.20;99.90
8105;DHT22;4095;48.942;9.104;2023-02-03T04:13:10;9.20;99.90
8105;DHT22;4095;48.942;9.104;2023-02-03T04:15:36;9.20;99.90
8105;DHT22;4095;48.942;9.104;2023-02-03T04:18:02;9.20;99.90
8105;DHT22;4095;48.942;9.104;2023-02-03T04:20:29;9.20;99.90
8105;DHT22;4095;48.942;9.104;2023-02-03T04:22:56;9.20;99.90
8105;DHT22;4095;48.942;9.104;2023-02-03T04:25:22;9.20;99.90
8105;DHT22;4095;48.942;9.104;2023-02-03T04:27:47;9.20;99.90
8105;DHT22;4095;48.942;9.104;2023-02-03T04:30:13;9.20;99.90
8105;DHT22;4095;48.942;9.104;2023-02-03T04:32:39;9.10;99.90
8105;DHT22;4095;48.942;9.104;2023-02-03T04:35:05;9.10;99.90
8105;DHT22;4095;48.942;9.104;2023-02-03T04:37:31;9.10;99.90
8105;DHT22;4095;48.942;9.104;2023-02-03T04:39:57;9.00;99.90
8105;DHT22;4095;48.942;9.104;2023-02-03T04:42:23;8.90;99.90
8105;DHT22;4095;48.942;9.104;2023-02-03T04:44:49;8.90;99.90
8105;DHT22;4095;48.942;9.104;2023-02-03T04:47:16;8.90;99.90
8105;DHT22;4095;48.942;9.104;2023-02-03T04:49:42;8.90;99.90
8105;DHT22;4095;48.942;9.104;2023-02-03T04:52:08;8.90;99.90
8105;DHT22;4095;48.942;9.104;2023-02-03T04:54:33;8.90;99.90
8105;DHT22;4095;48.942;9.104;2023-02-03T04:57:00;8.90;99.90
8105;DHT22;4095;48.942;9.104;2023-02-03T04:59:26;8.90;99.90
8105;DHT22;4095;48.942;9.104;2023-02-03T05:01:51;8.90;99.90
8105;DHT22;4095;48.942;9.104;2023-02-03T05:04:17;8.90;99.90
8105;DHT22;4095;48.942;9.104;2023-02-03T05:06:43;8.90;99.90
8105;DHT22;4095;48.942;9.104;2023-02-03T05:09:08;9.00;99.90
8105;DHT22;4095;48.942;9.104;2023-02-03T05:11:34;8.90;99.90
8105;DHT22;4095;48.942;9.104;2023-02-03T05:14:00;8.90;99.90
8105;DHT22;4095;48.942;9.104;2023-02-03T05:16:25;9.00;99.90
8105;DHT22;4095;48.942;9.104;2023-02-03T05:18:51;8.90;99.90
8105;DHT22;4095;48.942;9.104;2023-02-03T05:21:17;8.90;99.90
8105;DHT22;4095;48.942;9.104;2023-02-03T05:23:42;8.90;99.90
8105;DHT22;4095;48.942;9.104;2023-02-03T05:26:08;8.80;99.90
8105;DHT22;4095;48.942;9.104;2023-02-03T05:28:34;8.80;99.90
8105;DHT22;4095;48.942;9.104;2023-02-03T05:31:00;8.80;99.90
8105;DHT22;4095;48.942;9.104;2023-02-03T05:33:27;8.90;99.90
8105;DHT22;4095;48.942;9.104;2023-02-03T05:35:53;8.80;99.90
8105;DHT22;4095;48.942;9.104;2023-02-03T05:38:19;8.80;99.90
8105;DHT22;4095;48.942;9.104;2023-02-03T05:40:47;8.80;99.90
8105;DHT22;4095;48.942;9.104;2023-02-03T05:43:32;8.90;99.90
8105;DHT22;4095;48.942;9.104;2023-02-03T05:46:05;8.90;99.90
8105;DHT22;4095;48.942;9.104;2023-02-03T05:48:31;8.90;99.90
8105;DHT22;4095;48.942;9.104;2023-02-03T05:50:57;8.90;99.90
8105;DHT22;4095;48.942;9.104;2023-02-03T05:53:23;8.90;99.90
8105;DHT22;4095;48.942;9.104;2023-02-03T05:55:49;8.80;99.90
8105;DHT22;4095;48.942;9.104;2023-02-03T05:58:15;8.80;99.90
8105;DHT22;4095;48.942;9.104;2023-02-03T06:00:40;8.80;99.90
8105;DHT22;4095;48.942;9.104;2023-02-03T06:03:06;8.90;99.90
8105;DHT22;4095;48.942;9.104;2023-02-03T06:05:33;8.90;99.90
8105;DHT22;4095;48.942;9.104;2023-02-03T06:08:00;8.90;99.90
8105;DHT22;4095;48.942;9.104;2023-02-03T06:10:26;8.90;99.90
8105;DHT22;4095;48.942;9.104;2023-02-03T06:12:51;8.90;99.90
8105;DHT22;4095;48.942;9.104;2023-02-03T06:15:17;9.00;99.90
8105;DHT22;4095;48.942;9.104;2023-02-03T06:17:44;8.90;99.90
8105;DHT22;4095;48.942;9.104;2023-02-03T06:20:11;8.90;99.90
8105;DHT22;4095;48.942;9.104;2023-02-03T06:22:36;8.90;99.90
8105;DHT22;4095;48.942;9.104;2023-02-03T06:25:03;8.90;99.90
8105;DHT22;4095;48.942;9.104;2023-02-03T06:27:29;8.90;99.90
8105;DHT22;4095;48.942;9.104;2023-02-03T06:29:54;8.90;99.90
8105;DHT22;4095;48.942;9.104;2023-02-03T06:32:20;9.00;99.90
8105;DHT22;4095;48.942;9.104;2023-02-03T06:34:45;8.90;99.90
8105;DHT22;4095;48.942;9.104;2023-02-03T06:37:11;9.00;99.90
8105;DHT22;4095;48.942;9.104;2023-02-03T06:39:36;8.90;99.90
8105;DHT22;4095;48.942;9.104;2023-02-03T06:42:02;9.00;99.90
8105;DHT22;4095;48.942;9.104;2023-02-03T06:44:28;9.00;99.90
8105;DHT22;4095;48.942;9.104;2023-02-03T06:46:53;8.90;99.90
8105;DHT22;4095;48.942;9.104;2023-02-03T06:49:20;8.90;99.90
8105;DHT22;4095;48.942;9.104;2023-02-03T06:51:46;8.80;99.90
8105;DHT22;4095;48.942;9.104;2023-02-03T06:54:12;8.80;99.90
8105;DHT22;4095;48.942;9.104;2023-02-03T06:56:38;8.80;99.90
8105;DHT22;4095;48.942;9.104;2023-02-03T06:59:04;8.80;99.90
8105;DHT22;4095;48.942;9.104;2023-02-03T07:01:30;8.70;99.90
8105;DHT22;4095;48.942;9.104;2023-02-03T07:03:56;8.70;99.90
8105;DHT22;4095;48.942;9.104;2023-02-03T07:06:27;8.80;99.90
8105;DHT22;4095;48.942;9.104;2023-02-03T07:08:55;8.80;99.90
8105;DHT22;4095;48.942;9.104;2023-02-03T07:11:21;8.70;99.90
8105;DHT22;4095;48.942;9.104;2023-02-03T07:13:47;8.80;99.90
8105;DHT22;4095;48.942;9.104;2023-02-03T07:16:13;8.80;99.90
8105;DHT22;4095;48.942;9.104;2023-02-03T07:18:39;8.80;99.90
8105;DHT22;4095;48.942;9.104;2023-02-03T07:21:05;8.90;99.90
8105;DHT22;4095;48.942;9.104;2023-02-03T07:23:31;8.90;99.90
8105;DHT22;4095;48.942;9.104;2023-02-03T07:26:01;8.90;99.90
8105;DHT22;4095;48.942;9.104;2023-02-03T07:28:29;8.90;99.90
8105;DHT22;4095;48.942;9.104;2023-02-03T07:30:55;8.90;99.90
8105;DHT22;4095;48.942;9.104;2023-02-03T07:33:20;8.90;99.90
8105;DHT22;4095;48.942;9.104;2023-02-03T07:35:57;9.00;99.90
8105;DHT22;4095;48.942;9.104;2023-02-03T07:38:25;9.00;99.90
8105;DHT22;4095;48.942;9.104;2023-02-03T07:40:50;9.00;99.90
8105;DHT22;4095;48.942;9.104;2023-02-03T07:43:16;9.00;99.90
8105;DHT22;4095;48.942;9.104;2023-02-03T07:45:43;9.10;99.90
8105;DHT22;4095;48.942;9.104;2023-02-03T07:48:08;9.20;99.90
8105;DHT22;4095;48.942;9.104;2023-02-03T07:50:34;9.20;99.90
8105;DHT22;4095;48.942;9.104;2023-02-03T07:53:00;9.20;99.90
8105;DHT22;4095;48.942;9.104;2023-02-03T07:55:26;9.20;99.90
8105;DHT22;4095;48.942;9.104;2023-02-03T07:57:56;9.20;99.90
8105;DHT22;4095;48.942;9.104;2023-02-03T08:00:22;9.20;99.90
8105;DHT22;4095;48.942;9.104;2023-02-03T08:02:48;9.30;99.90
8105;DHT22;4095;48.942;9.104;2023-02-03T08:05:15;9.20;99.90
8105;DHT22;4095;48.942;9.104;2023-02-03T08:07:41;9.20;99.90
8105;DHT22;4095;48.942;9.104;2023-02-03T08:10:08;9.30;99.90
8105;DHT22;4095;48.942;9.104;2023-02-03T08:12:34;9.30;99.90
8105;DHT22;4095;48.942;9.104;2023-02-03T08:15:00;9.30;99.90
8105;DHT22;4095;48.942;9.104;2023-02-03T08:17:26;9.30;99.90
8105;DHT22;4095;48.942;9.104;2023-02-03T08:19:51;9.30;99.90
8105;DHT22;4095;48.942;9.104;2023-02-03T08:22:17;9.30;99.90
8105;DHT22;4095;48.942;9.104;2023-02-03T08:24:45;9.30;99.90
8105;DHT22;4095;48.942;9.104;2023-02-03T08:27:12;9.30;99.90
8105;DHT22;4095;48.942;9.104;2023-02-03T08:29:38;9.40;99.90
8105;DHT22;4095;48.942;9.104;2023-02-03T08:32:04;9.40;99.90
8105;DHT22;4095;48.942;9.104;2023-02-03T08:34:29;9.30;99.90
8105;DHT22;4095;48.942;9.104;2023-02-03T08:36:55;9.40;99.90
8105;DHT22;4095;48.942;9.104;2023-02-03T08:39:20;9.40;99.90
8105;DHT22;4095;48.942;9.104;2023-02-03T08:41:46;9.40;99.90
8105;DHT22;4095;48.942;9.104;2023-02-03T08:44:12;9.40;99.90
8105;DHT22;4095;48.942;9.104;2023-02-03T08:46:38;9.40;99.90
8105;DHT22;4095;48.942;9.104;2023-02-03T08:49:09;9.50;99.90
8105;DHT22;4095;48.942;9.104;2023-02-03T08:51:35;9.50;99.90
8105;DHT22;4095;48.942;9.104;2023-02-03T08:54:01;9.50;99.90
8105;DHT22;4095;48.942;9.104;2023-02-03T08:56:27;9.50;99.90
8105;DHT22;4095;48.942;9.104;2023-02-03T08:58:53;9.50;99.90
8105;DHT22;4095;48.942;9.104;2023-02-03T09:01:19;9.50;99.90
8105;DHT22;4095;48.942;9.104;2023-02-03T09:03:44;9.50;99.90
8105;DHT22;4095;48.942;9.104;2023-02-03T09:06:10;9.50;99.90
8105;DHT22;4095;48.942;9.104;2023-02-03T09:08:37;9.50;99.90
8105;DHT22;4095;48.942;9.104;2023-02-03T09:11:14;9.50;99.90
8105;DHT22;4095;48.942;9.104;2023-02-03T09:13:40;9.50;99.90
8105;DHT22;4095;48.942;9.104;2023-02-03T09:16:11;9.50;99.90
8105;DHT22;4095;48.942;9.104;2023-02-03T09:18:37;9.50;99.90
8105;DHT22;4095;48.942;9.104;2023-02-03T09:21:06;9.60;99.90
8105;DHT22;4095;48.942;9.104;2023-02-03T09:23:32;9.80;99.90
8105;DHT22;4095;48.942;9.104;2023-02-03T09:26:06;9.90;99.90
8105;DHT22;4095;48.942;9.104;2023-02-03T09:28:33;9.90;99.90
8105;DHT22;4095;48.942;9.104;2023-02-03T09:31:07;10.00;99.90
8105;DHT22;4095;48.942;9.104;2023-02-03T09:33:33;9.90;99.90
8105;DHT22;4095;48.942;9.104;2023-02-03T09:35:58;9.90;99.90
8105;DHT22;4095;48.942;9.104;2023-02-03T09:38:25;9.90;99.90
8105;DHT22;4095;48.942;9.104;2023-02-03T09:43:29;10.00;99.90
8105;DHT22;4095;48.942;9.104;2023-02-03T09:46:05;10.10;99.90
8105;DHT22;4095;48.942;9.104;2023-02-03T09:48:39;10.10;99.90
8105;DHT22;4095;48.942;9.104;2023-02-03T09:51:18;10.40;99.90
8105;DHT22;4095;48.942;9.104;2023-02-03T09:53:49;10.50;99.90
8105;DHT22;4095;48.942;9.104;2023-02-03T09:56:24;10.50;99.90
8105;DHT22;4095;48.942;9.104;2023-02-03T09:58:51;10.60;99.90
8105;DHT22;4095;48.942;9.104;2023-02-03T10:01:17;10.80;99.90
8105;DHT22;4095;48.942;9.104;2023-02-03T10:04:00;10.80;99.90
8105;DHT22;4095;48.942;9.104;2023-02-03T10:06:42;10.80;99.90
8105;DHT22;4095;48.942;9.104;2023-02-03T10:12:10;10.50;99.90
8105;DHT22;4095;48.942;9.104;2023-02-03T10:15:14;10.30;99.90
8105;DHT22;4095;48.942;9.104;2023-02-03T10:18:24;10.30;99.90
8105;DHT22;4095;48.942;9.104;2023-02-03T10:20:55;10.30;99.90
8105;DHT22;4095;48.942;9.104;2023-02-03T10:23:29;10.20;99.90
8105;DHT22;4095;48.942;9.104;2023-02-03T10:25:56;10.10;99.90
8105;DHT22;4095;48.942;9.104;2023-02-03T10:28:26;10.00;99.90
8105;DHT22;4095;48.942;9.104;2023-02-03T10:30:58;9.90;99.90
8105;DHT22;4095;48.942;9.104;2023-02-03T10:33:27;10.00;99.90
8105;DHT22;4095;48.942;9.104;2023-02-03T10:35:57;10.20;99.90
8105;DHT22;4095;48.942;9.104;2023-02-03T10:41:06;10.30;99.90
8105;DHT22;4095;48.942;9.104;2023-02-03T10:43:32;10.30;99.90
8105;DHT22;4095;48.942;9.104;2023-02-03T10:46:37;10.50;99.90
8105;DHT22;4095;48.942;9.104;2023-02-03T10:49:02;10.50;99.90
8105;DHT22;4095;48.942;9.104;2023-02-03T10:51:46;10.40;99.90
8105;DHT22;4095;48.942;9.104;2023-02-03T10:54:33;10.30;99.90
8105;DHT22;4095;48.942;9.104;2023-02-03T10:57:05;10.10;99.90
8105;DHT22;4095;48.942;9.104;2023-02-03T10:59:35;10.10;99.90
8105;DHT22;4095;48.942;9.104;2023-02-03T11:02:08;10.10;99.90
8105;DHT22;4095;48.942;9.104;2023-02-03T11:04:34;10.00;99.90
8105;DHT22;4095;48.942;9.104;2023-02-03T11:07:06;10.00;99.90
8105;DHT22;4095;48.942;9.104;2023-02-03T11:09:38;10.10;99.90
8105;DHT22;4095;48.942;9.104;2023-02-03T11:12:18;10.00;99.90
8105;DHT22;4095;48.942;9.104;2023-02-03T11:14:46;10.00;99.90
8105;DHT22;4095;48.942;9.104;2023-02-03T11:17:18;10.00;99.90
8105;DHT22;4095;48.942;9.104;2023-02-03T11:19:46;10.00;99.90
8105;DHT22;4095;48.942;9.104;2023-02-03T11:22:29;10.10;99.90
8105;DHT22;4095;48.942;9.104;2023-02-03T11:24:56;10.10;99.90
8105;DHT22;4095;48.942;9.104;2023-02-03T11:27:23;10.20;99.90
8105;DHT22;4095;48.942;9.104;2023-02-03T11:29:53;10.20;99.90
8105;DHT22;4095;48.942;9.104;2023-02-03T11:32:37;10.20;99.90
8105;DHT22;4095;48.942;9.104;2023-02-03T11:35:16;10.10;99.90
8105;DHT22;4095;48.942;9.104;2023-02-03T11:37:44;10.10;99.90
8105;DHT22;4095;48.942;9.104;2023-02-03T11:45:24;10.10;99.90
8105;DHT22;4095;48.942;9.104;2023-02-03T12:15:41;10.10;99.80
8105;DHT22;4095;48.942;9.104;2023-02-03T12:21:05;10.10;99.90
8105;DHT22;4095;48.942;9.104;2023-02-03T12:23:53;10.20;99.90
8105;DHT22;4095;48.942;9.104;2023-02-03T12:26:24;10.10;99.90
8105;DHT22;4095;48.942;9.104;2023-02-03T12:29:14;10.10;99.90
8105;DHT22;4095;48.942;9.104;2023-02-03T12:34:28;10.10;99.70
8105;DHT22;4095;48.942;9.104;2023-02-03T12:37:20;10.10;99.80
8105;DHT22;4095;48.942;9.104;2023-02-03T12:39:52;10.10;99.70
8105;DHT22;4095;48.942;9.104;2023-02-03T12:42:28;10.10;99.70
8105;DHT22;4095;48.942;9.104;2023-02-03T12:47:35;10.10;99.60
8105;DHT22;4095;48.942;9.104;2023-02-03T12:50:20;10.10;99.70
8105;DHT22;4095;48.942;9.104;2023-02-03T12:55:44;10.10;99.60
8105;DHT22;4095;48.942;9.104;2023-02-03T12:58:27;10.10;99.40
8105;DHT22;4095;48.942;9.104;2023-02-03T13:01:03;10.10;99.50
8105;DHT22;4095;48.942;9.104;2023-02-03T13:03:40;10.10;99.50
8105;DHT22;4095;48.942;9.104;2023-02-03T13:06:31;10.10;99.50
8105;DHT22;4095;48.942;9.104;2023-02-03T13:12:11;10.10;99.40
8105;DHT22;4095;48.942;9.104;2023-02-03T13:15:33;10.10;99.30
8105;DHT22;4095;48.942;9.104;2023-02-03T13:17:49;10.10;99.40
8105;DHT22;4095;48.942;9.104;2023-02-03T13:20:20;10.10;99.40
8105;DHT22;4095;48.942;9.104;2023-02-03T13:22:46;10.00;99.50
8105;DHT22;4095;48.942;9.104;2023-02-03T13:34:00;10.00;99.70
8105;DHT22;4095;48.942;9.104;2023-02-03T13:44:43;10.00;99.90
8105;DHT22;4095;48.942;9.104;2023-02-03T13:47:21;10.00;99.90
8105;DHT22;4095;48.942;9.104;2023-02-03T13:49:53;9.90;99.90
8105;DHT22;4095;48.942;9.104;2023-02-03T13:52:25;9.90;99.90
8105;DHT22;4095;48.942;9.104;2023-02-03T13:54:53;9.90;99.90
8105;DHT22;4095;48.942;9.104;2023-02-03T13:57:34;9.90;99.90
8105;DHT22;4095;48.942;9.104;2023-02-03T14:00:04;10.00;99.90
8105;DHT22;4095;48.942;9.104;2023-02-03T14:02:40;9.90;99.90
8105;DHT22;4095;48.942;9.104;2023-02-03T14:05:37;9.90;99.90
8105;DHT22;4095;48.942;9.104;2023-02-03T14:07:53;10.00;99.90
8105;DHT22;4095;48.942;9.104;2023-02-03T14:10:21;9.90;99.90
8105;DHT22;4095;48.942;9.104;2023-02-03T14:17:54;9.90;99.90
8105;DHT22;4095;48.942;9.104;2023-02-03T14:23:40;9.90;99.90
8105;DHT22;4095;48.942;9.104;2023-02-03T14:25:52;9.90;99.90
8105;DHT22;4095;48.942;9.104;2023-02-03T14:28:23;9.90;99.90
8105;DHT22;4095;48.942;9.104;2023-02-03T14:34:03;9.90;99.90
8105;DHT22;4095;48.942;9.104;2023-02-03T14:36:47;9.90;99.90
8105;DHT22;4095;48.942;9.104;2023-02-03T14:42:20;9.90;99.90
8105;DHT22;4095;48.942;9.104;2023-02-03T14:45:13;9.90;99.90
8105;DHT22;4095;48.942;9.104;2023-02-03T14:50:43;9.90;99.90
8105;DHT22;4095;48.942;9.104;2023-02-03T14:58:24;9.90;99.90
8105;DHT22;4095;48.942;9.104;2023-02-03T15:00:52;9.90;99.90
8105;DHT22;4095;48.942;9.104;2023-02-03T15:03:21;10.00;99.90
8105;DHT22;4095;48.942;9.104;2023-02-03T15:05:55;10.00;99.90
8105;DHT22;4095;48.942;9.104;2023-02-03T15:11:02;10.00;99.90
8105;DHT22;4095;48.942;9.104;2023-02-03T15:13:38;10.00;99.90
8105;DHT22;4095;48.942;9.104;2023-02-03T15:16:04;10.00;99.90
8105;DHT22;4095;48.942;9.104;2023-02-03T15:18:37;10.00;99.90
8105;DHT22;4095;48.942;9.104;2023-02-03T15:21:04;10.00;99.90
8105;DHT22;4095;48.942;9.104;2023-02-03T15:23:43;10.00;99.90
8105;DHT22;4095;48.942;9.104;2023-02-03T15:28:58;10.00;99.90
8105;DHT22;4095;48.942;9.104;2023-02-03T15:33:54;10.10;99.90
8105;DHT22;4095;48.942;9.104;2023-02-03T15:36:33;10.10;99.90
8105;DHT22;4095;48.942;9.104;2023-02-03T15:42:40;10.10;99.90
8105;DHT22;4095;48.942;9.104;2023-02-03T15:45:25;10.10;99.90
8105;DHT22;4095;48.942;9.104;2023-02-03T15:48:07;10.00;99.90
8105;DHT22;4095;48.942;9.104;2023-02-03T15:50:41;10.00;99.90
8105;DHT22;4095;48.942;9.104;2023-02-03T15:55:50;10.00;99.90
8105;DHT22;4095;48.942;9.104;2023-02-03T15:58:43;9.90;99.90
8105;DHT22;4095;48.942;9.104;2023-02-03T16:01:13;10.00;99.90
8105;DHT22;4095;48.942;9.104;2023-02-03T16:03:47;9.90;99.90
8105;DHT22;4095;48.942;9.104;2023-02-03T16:06:39;9.90;99.90
8105;DHT22;4095;48.942;9.104;2023-02-03T16:09:31;9.80;99.90
8105;DHT22;4095;48.942;9.104;2023-02-03T16:12:27;9.80;99.90
8105;DHT22;4095;48.942;9.104;2023-02-03T16:14:54;9.70;99.90
8105;DHT22;4095;48.942;9.104;2023-02-03T16:20:03;9.50;99.90
8105;DHT22;4095;48.942;9.104;2023-02-03T16:22:40;9.50;99.90
8105;DHT22;4095;48.942;9.104;2023-02-03T16:25:27;9.50;99.90
8105;DHT22;4095;48.942;9.104;2023-02-03T16:30:59;9.40;99.90
8105;DHT22;4095;48.942;9.104;2023-02-03T16:33:49;9.40;99.90
8105;DHT22;4095;48.942;9.104;2023-02-03T16:36:37;9.40;99.90
8105;DHT22;4095;48.942;9.104;2023-02-03T16:39:22;9.30;99.90
8105;DHT22;4095;48.942;9.104;2023-02-03T16:42:14;9.40;99.90
8105;DHT22;4095;48.942;9.104;2023-02-03T16:44:59;9.40;99.90
8105;DHT22;4095;48.942;9.104;2023-02-03T16:47:44;9.40;99.90
8105;DHT22;4095;48.942;9.104;2023-02-03T16:50:29;9.40;99.90
8105;DHT22;4095;48.942;9.104;2023-02-03T16:53:16;9.30;99.90
8105;DHT22;4095;48.942;9.104;2023-02-03T16:55:43;9.40;99.90
8105;DHT22;4095;48.942;9.104;2023-02-03T16:58:08;9.40;99.90
8105;DHT22;4095;48.942;9.104;2023-02-03T17:00:36;9.40;99.90
8105;DHT22;4095;48.942;9.104;2023-02-03T17:03:05;9.40;99.90
8105;DHT22;4095;48.942;9.104;2023-02-03T17:05:39;9.40;99.90
8105;DHT22;4095;48.942;9.104;2023-02-03T17:08:05;9.30;99.90
8105;DHT22;4095;48.942;9.104;2023-02-03T17:10:33;9.40;99.90
8105;DHT22;4095;48.942;9.104;2023-02-03T17:12:59;9.40;99.90
8105;DHT22;4095;48.942;9.104;2023-02-03T17:15:24;9.30;99.90
8105;DHT22;4095;48.942;9.104;2023-02-03T17:17:50;9.40;99.90
8105;DHT22;4095;48.942;9.104;2023-02-03T17:20:16;9.40;99.90
8105;DHT22;4095;48.942;9.104;2023-02-03T17:22:41;9.40;99.90
8105;DHT22;4095;48.942;9.104;2023-02-03T17:25:07;9.50;99.90
8105;DHT22;4095;48.942;9.104;2023-02-03T17:27:32;9.50;99.90
8105;DHT22;4095;48.942;9.104;2023-02-03T17:29:58;9.50;99.90
8105;DHT22;4095;48.942;9.104;2023-02-03T17:32:24;9.50;99.90
8105;DHT22;4095;48.942;9.104;2023-02-03T17:34:49;9.50;99.90
8105;DHT22;4095;48.942;9.104;2023-02-03T17:37:15;9.50;99.90
8105;DHT22;4095;48.942;9.104;2023-02-03T17:39:40;9.50;99.90
8105;DHT22;4095;48.942;9.104;2023-02-03T17:42:06;9.60;99.90
8105;DHT22;4095;48.942;9.104;2023-02-03T17:44:33;9.60;99.90
8105;DHT22;4095;48.942;9.104;2023-02-03T17:47:00;9.60;99.90
8105;DHT22;4095;48.942;9.104;2023-02-03T17:49:26;9.70;99.90
8105;DHT22;4095;48.942;9.104;2023-02-03T17:51:51;9.70;99.90
8105;DHT22;4095;48.942;9.104;2023-02-03T17:54:17;9.70;99.90
8105;DHT22;4095;48.942;9.104;2023-02-03T17:56:42;9.70;99.90
8105;DHT22;4095;48.942;9.104;2023-02-03T17:59:12;9.80;99.90
8105;DHT22;4095;48.942;9.104;2023-02-03T18:01:37;9.70;99.90
8105;DHT22;4095;48.942;9.104;2023-02-03T18:04:04;9.70;99.90
8105;DHT22;4095;48.942;9.104;2023-02-03T18:06:31;9.70;99.90
8105;DHT22;4095;48.942;9.104;2023-02-03T18:09:00;9.70;99.90
8105;DHT22;4095;48.942;9.104;2023-02-03T18:11:28;9.70;99.90
8105;DHT22;4095;48.942;9.104;2023-02-03T18:13:54;9.70;99.90
8105;DHT22;4095;48.942;9.104;2023-02-03T18:16:22;9.70;99.90
8105;DHT22;4095;48.942;9.104;2023-02-03T18:18:52;9.70;99.90
8105;DHT22;4095;48.942;9.104;2023-02-03T18:21:19;9.70;99.90
8105;DHT22;4095;48.942;9.104;2023-02-03T18:23:45;9.70;99.90
8105;DHT22;4095;48.942;9.104;2023-02-03T18:26:12;9.70;99.90
8105;DHT22;4095;48.942;9.104;2023-02-03T18:28:39;9.70;99.90
8105;DHT22;4095;48.942;9.104;2023-02-03T18:31:13;9.70;99.90
8105;DHT22;4095;48.942;9.104;2023-02-03T18:33:40;9.70;99.90
8105;DHT22;4095;48.942;9.104;2023-02-03T18:36:06;9.70;99.90
8105;DHT22;4095;48.942;9.104;2023-02-03T18:38:33;9.60;99.90
8105;DHT22;4095;48.942;9.104;2023-02-03T18:41:05;9.60;99.90
8105;DHT22;4095;48.942;9.104;2023-02-03T18:43:31;9.60;99.90
8105;DHT22;4095;48.942;9.104;2023-02-03T18:45:56;9.50;99.90
8105;DHT22;4095;48.942;9.104;2023-02-03T18:48:22;9.50;99.90